createdAt,value
2023-04-23T00:00:37.138Z,13.02
2023-04-23T00:02:42.570Z,13.07
2023-04-23T00:04:51.449Z,12.66
2023-04-23T00:06:54.648Z,12.84
2023-04-23T00:09:00.709Z,12.65
2023-04-23T00:11:04.156Z,13.07
2023-04-23T00:13:07.304Z,13.11
2023-04-23T00:15:11.445Z,13.15
2023-04-23T00:17:15.477Z,13.12
2023-04-23T00:19:18.141Z,13.15
2023-04-23T00:21:20.924Z,13.09
2023-04-23T00:23:23.627Z,13.07
2023-04-23T00:25:26.324Z,13.01
2023-04-23T00:27:29.127Z,13.00
2023-04-23T00:29:31.913Z,12.76
2023-04-23T00:31:34.788Z,12.89
2023-04-23T00:33:39.588Z,12.69
2023-04-23T00:35:42.436Z,12.69
2023-04-23T00:37:45.261Z,12.64
2023-04-23T00:39:48.074Z,12.47
2023-04-23T00:41:51.564Z,12.33
2023-04-23T00:43:55.145Z,12.20
2023-04-23T00:45:58.005Z,11.95
2023-04-23T00:48:01.352Z,12.26
2023-04-23T00:50:06.590Z,12.35
2023-04-23T00:52:09.342Z,12.27
2023-04-23T00:54:12.660Z,11.95
2023-04-23T00:56:15.908Z,12.08
2023-04-23T00:58:18.658Z,12.48
2023-04-23T01:00:23.388Z,12.34
2023-04-23T01:02:28.037Z,10.04
2023-04-23T01:04:32.150Z,12.36
2023-04-23T01:06:36.617Z,12.53
2023-04-23T01:08:40.112Z,12.38
2023-04-23T01:10:43.548Z,12.56
2023-04-23T01:12:47.705Z,12.16
2023-04-23T01:14:50.622Z,12.43
2023-04-23T01:16:53.942Z,11.99
2023-04-23T01:18:56.898Z,12.59
2023-04-23T01:21:00.054Z,11.70
2023-04-23T01:23:05.027Z,11.26
2023-04-23T01:25:10.305Z,10.77
2023-04-23T01:27:13.323Z,12.32
2023-04-23T01:29:16.457Z,12.34
2023-04-23T01:31:19.693Z,12.23
2023-04-23T01:33:22.795Z,12.19
2023-04-23T01:35:26.061Z,12.09
2023-04-23T01:37:30.354Z,12.01
2023-04-23T01:39:36.079Z,12.03
2023-04-23T01:41:38.870Z,11.96
2023-04-23T01:43:43.458Z,10.55
2023-04-23T01:45:46.338Z,11.63
2023-04-23T01:47:49.485Z,11.65
2023-04-23T01:49:52.495Z,11.94
2023-04-23T01:51:55.522Z,12.20
2023-04-23T01:53:58.257Z,11.80
2023-04-23T01:56:03.462Z,12.33
2023-04-23T01:58:06.234Z,11.08
2023-04-23T02:00:11.249Z,12.32
2023-04-23T02:02:16.938Z,12.33
2023-04-23T02:04:19.903Z,12.17
2023-04-23T02:06:22.680Z,12.26
2023-04-23T02:08:26.261Z,12.38
2023-04-23T02:10:29.625Z,12.38
2023-04-23T02:12:33.716Z,12.42
2023-04-23T02:14:36.567Z,11.14
2023-04-23T02:16:40.491Z,11.74
2023-04-23T02:18:43.234Z,11.89
2023-04-23T02:20:45.983Z,12.01
2023-04-23T02:22:50.579Z,12.03
2023-04-23T02:24:53.703Z,12.15
2023-04-23T02:26:57.958Z,11.74
2023-04-23T02:29:02.064Z,11.89
2023-04-23T02:31:05.186Z,12.00
2023-04-23T02:33:07.943Z,12.10
2023-04-23T02:35:10.953Z,12.20
2023-04-23T02:37:13.758Z,12.22
2023-04-23T02:39:16.535Z,12.26
2023-04-23T02:41:19.259Z,12.30
2023-04-23T02:43:22.075Z,12.32
2023-04-23T02:45:26.178Z,12.04
2023-04-23T02:47:30.196Z,12.37
2023-04-23T02:49:32.943Z,12.41
2023-04-23T02:51:36.043Z,11.26
2023-04-23T02:53:38.955Z,11.79
2023-04-23T02:55:41.778Z,12.38
2023-04-23T02:57:45.768Z,12.42
2023-04-23T02:59:48.659Z,12.24
2023-04-23T03:01:55.081Z,12.27
2023-04-23T03:03:59.550Z,12.17
2023-04-23T03:06:03.205Z,12.41
2023-04-23T03:08:06.088Z,11.85
2023-04-23T03:10:09.817Z,12.16
2023-04-23T03:12:12.782Z,12.38
2023-04-23T03:14:15.574Z,12.37
2023-04-23T03:16:18.955Z,12.38
2023-04-23T03:18:24.226Z,12.37
2023-04-23T03:20:29.496Z,12.10
2023-04-23T03:22:32.268Z,12.33
2023-04-23T03:24:36.011Z,12.22
2023-04-23T03:26:38.785Z,11.92
2023-04-23T03:28:41.690Z,12.14
2023-04-23T03:30:44.689Z,12.06
2023-04-23T03:32:47.641Z,10.53
2023-04-23T03:34:51.899Z,12.01
2023-04-23T03:36:55.451Z,12.08
2023-04-23T03:38:58.348Z,12.11
2023-04-23T03:41:04.362Z,12.11
2023-04-23T03:43:07.271Z,11.44
2023-04-23T03:45:33.472Z,10.89
2023-04-23T03:47:36.900Z,11.35
2023-04-23T03:49:40.567Z,11.79
2023-04-23T03:51:45.805Z,11.95
2023-04-23T03:53:48.615Z,11.38
2023-04-23T03:56:11.513Z,11.80
2023-04-23T03:58:23.741Z,12.00
2023-04-23T04:00:28.412Z,11.87
2023-04-23T04:02:31.455Z,11.84
2023-04-23T04:04:35.045Z,11.89
2023-04-23T04:06:37.947Z,11.87
2023-04-23T04:08:42.019Z,10.83
2023-04-23T04:10:44.807Z,11.83
2023-04-23T04:12:48.095Z,11.80
2023-04-23T04:14:51.355Z,11.76
2023-04-23T04:16:54.821Z,11.75
2023-04-23T04:18:57.585Z,11.75
2023-04-23T04:21:00.656Z,11.71
2023-04-23T04:23:03.451Z,11.68
2023-04-23T04:25:08.774Z,11.66
2023-04-23T04:27:11.683Z,11.63
2023-04-23T04:29:15.016Z,11.66
2023-04-23T04:31:17.820Z,11.62
2023-04-23T04:33:21.070Z,11.51
2023-04-23T04:35:23.939Z,11.53
2023-04-23T04:37:28.051Z,11.54
2023-04-23T04:39:30.780Z,11.24
2023-04-23T04:41:34.920Z,11.48
2023-04-23T04:43:37.707Z,11.47
2023-04-23T04:45:40.441Z,11.48
2023-04-23T04:47:43.159Z,11.47
2023-04-23T04:49:46.096Z,11.49
2023-04-23T04:51:48.854Z,11.47
2023-04-23T04:53:51.643Z,11.46
2023-04-23T04:55:54.404Z,11.45
2023-04-23T04:57:58.522Z,10.49
2023-04-23T05:00:05.023Z,11.50
2023-04-23T05:02:07.923Z,11.48
2023-04-23T05:04:10.928Z,11.51
2023-04-23T05:06:13.912Z,11.55
2023-04-23T05:08:17.425Z,11.56
2023-04-23T05:10:20.631Z,11.57
2023-04-23T05:12:23.368Z,11.59
2023-04-23T05:14:27.492Z,11.62
2023-04-23T05:16:30.216Z,11.68
2023-04-23T05:18:32.965Z,11.72
2023-04-23T05:20:35.817Z,10.94
2023-04-23T05:22:38.849Z,11.79
2023-04-23T05:24:41.880Z,11.86
2023-04-23T05:26:44.800Z,11.81
2023-04-23T05:28:47.554Z,11.81
2023-04-23T05:30:52.396Z,11.88
2023-04-23T05:32:55.206Z,11.85
2023-04-23T05:34:58.130Z,11.79
2023-04-23T05:37:01.452Z,11.78
2023-04-23T05:39:04.302Z,11.78
2023-04-23T05:41:07.158Z,11.77
2023-04-23T05:43:09.917Z,11.88
2023-04-23T05:45:13.010Z,11.82
2023-04-23T05:47:17.201Z,11.86
2023-04-23T05:49:20.014Z,11.95
2023-04-23T05:51:22.830Z,11.69
2023-04-23T05:53:25.866Z,11.79
2023-04-23T05:55:28.688Z,12.13
2023-04-23T05:57:31.423Z,12.15
2023-04-23T05:59:34.961Z,12.21
2023-04-23T06:01:37.713Z,12.17
2023-04-23T06:03:45.558Z,12.20
2023-04-23T06:05:48.667Z,11.87
2023-04-23T06:07:51.690Z,9.46
2023-04-23T06:09:54.462Z,12.19
2023-04-23T06:11:57.164Z,11.46
2023-04-23T06:13:59.951Z,12.13
2023-04-23T06:16:02.716Z,12.09
2023-04-23T06:18:05.851Z,12.13
2023-04-23T06:20:11.938Z,12.21
2023-04-23T06:22:14.877Z,12.24
2023-04-23T06:24:17.668Z,12.31
2023-04-23T06:26:20.721Z,12.35
2023-04-23T06:28:25.434Z,12.26
2023-04-23T06:30:48.197Z,12.37
2023-04-23T06:32:51.236Z,11.23
2023-04-23T06:35:00.979Z,12.38
2023-04-23T06:37:06.447Z,12.38
2023-04-23T06:39:09.334Z,12.34
2023-04-23T06:41:12.758Z,12.28
2023-04-23T06:43:15.687Z,12.42
2023-04-23T06:45:44.507Z,12.41
2023-04-23T06:47:49.169Z,12.44
2023-04-23T06:49:52.204Z,12.34
2023-04-23T06:51:57.032Z,11.57
2023-04-23T06:54:01.860Z,12.69
2023-04-23T06:56:05.130Z,12.23
2023-04-23T06:58:08.056Z,12.91
2023-04-23T07:00:12.404Z,12.23
2023-04-23T07:02:17.847Z,12.78
2023-04-23T07:04:20.827Z,12.77
2023-04-23T07:06:23.790Z,12.85
2023-04-23T07:08:26.657Z,11.84
2023-04-23T07:10:30.765Z,11.28
2023-04-23T07:12:33.504Z,12.92
2023-04-23T07:14:36.230Z,12.94
2023-04-23T07:16:38.997Z,13.15
2023-04-23T07:18:41.740Z,13.18
2023-04-23T07:20:44.474Z,13.25
2023-04-23T07:22:47.948Z,13.23
2023-04-23T07:24:50.772Z,13.12
2023-04-23T07:26:55.049Z,13.39
2023-04-23T07:28:58.108Z,13.44
2023-04-23T07:31:01.114Z,13.36
2023-04-23T07:33:04.005Z,11.50
2023-04-23T07:35:08.561Z,13.12
2023-04-23T07:37:11.698Z,13.65
2023-04-23T07:39:14.481Z,13.79
2023-04-23T07:41:17.293Z,13.60
2023-04-23T07:43:21.405Z,14.05
2023-04-23T07:45:24.241Z,13.73
2023-04-23T07:47:27.067Z,14.12
2023-04-23T07:49:29.781Z,14.01
2023-04-23T07:51:33.799Z,12.13
2023-04-23T07:53:36.990Z,13.55
2023-04-23T07:55:40.213Z,13.78
2023-04-23T07:57:43.116Z,13.95
2023-04-23T07:59:47.128Z,14.05
2023-04-23T08:01:49.840Z,14.14
2023-04-23T08:03:53.168Z,14.22
2023-04-23T08:05:56.653Z,14.39
2023-04-23T08:07:59.369Z,14.46
2023-04-23T08:10:05.990Z,14.49
2023-04-23T08:12:08.744Z,14.65
2023-04-23T08:14:11.532Z,14.85
2023-04-23T08:16:15.740Z,15.05
2023-04-23T08:18:18.648Z,14.92
2023-04-23T08:20:21.444Z,15.55
2023-04-23T08:22:24.154Z,15.69
2023-04-23T08:24:27.107Z,15.78
2023-04-23T08:26:29.838Z,15.83
2023-04-23T08:28:32.515Z,15.99
2023-04-23T08:30:35.281Z,16.05
2023-04-23T08:32:40.270Z,15.96
2023-04-23T08:34:43.003Z,16.09
2023-04-23T08:36:46.370Z,16.15
2023-04-23T08:38:49.168Z,16.36
2023-04-23T08:40:58.314Z,16.39
2023-04-23T08:43:04.457Z,16.58
2023-04-23T08:45:08.384Z,16.66
2023-04-23T08:47:13.511Z,16.58
2023-04-23T08:49:19.139Z,16.61
2023-04-23T08:51:25.473Z,16.66
2023-04-23T08:53:28.968Z,16.65
2023-04-23T08:55:32.448Z,17.01
2023-04-23T08:57:35.631Z,17.14
2023-04-23T08:59:40.903Z,14.26
2023-04-23T09:01:44.310Z,16.96
2023-04-23T09:03:48.225Z,16.85
2023-04-23T09:05:53.108Z,16.80
2023-04-23T09:07:55.850Z,17.38
2023-04-23T09:09:58.642Z,17.53
2023-04-23T09:12:01.426Z,17.62
2023-04-23T09:14:04.819Z,17.28
2023-04-23T09:16:07.722Z,17.13
2023-04-23T09:18:11.098Z,17.33
2023-04-23T09:20:15.813Z,16.97
2023-04-23T09:22:39.245Z,16.02
2023-04-23T09:24:43.635Z,16.71
2023-04-23T09:26:47.333Z,17.19
2023-04-23T09:28:51.590Z,17.69
2023-04-23T09:30:54.499Z,17.97
2023-04-23T09:32:57.341Z,18.22
2023-04-23T09:35:00.174Z,18.13
2023-04-23T09:37:04.936Z,17.61
2023-04-23T09:39:14.472Z,17.30
2023-04-23T09:41:24.324Z,17.47
2023-04-23T09:43:31.261Z,17.95
2023-04-23T09:45:35.252Z,18.22
2023-04-23T09:47:40.503Z,18.60
2023-04-23T09:49:49.966Z,18.70
2023-04-23T09:51:52.689Z,19.12
2023-04-23T09:53:55.478Z,19.24
2023-04-23T09:55:59.579Z,19.10
2023-04-23T09:58:03.336Z,19.06
2023-04-23T10:00:15.607Z,19.22
2023-04-23T10:02:18.838Z,18.94
2023-04-23T10:04:23.591Z,19.20
2023-04-23T10:06:44.272Z,19.23
2023-04-23T10:08:54.861Z,19.61
2023-04-23T10:11:13.608Z,19.83
2023-04-23T10:13:21.752Z,19.80
2023-04-23T10:15:26.365Z,19.60
2023-04-23T10:17:29.343Z,19.56
2023-04-23T10:19:33.824Z,19.86
2023-04-23T10:21:46.688Z,19.90
2023-04-23T10:23:57.878Z,20.15
2023-04-23T10:26:04.929Z,19.80
2023-04-23T10:28:11.730Z,20.19
2023-04-23T10:30:15.657Z,19.66
2023-04-23T10:32:19.489Z,20.47
2023-04-23T10:34:23.431Z,20.72
2023-04-23T10:36:27.803Z,21.12
2023-04-23T10:38:31.188Z,21.39
2023-04-23T10:40:37.674Z,21.08
2023-04-23T10:42:44.231Z,21.35
2023-04-23T10:44:59.044Z,21.62
2023-04-23T10:47:04.667Z,21.85
2023-04-23T10:49:14.810Z,20.72
2023-04-23T10:52:02.422Z,21.57
2023-04-23T10:53:43.188Z,21.61
2023-04-23T10:55:45.942Z,21.30
2023-04-23T10:58:08.678Z,21.28
2023-04-23T11:00:13.049Z,21.05
2023-04-23T11:02:15.941Z,20.29
2023-04-23T11:04:24.040Z,20.10
2023-04-23T11:06:57.579Z,21.05
2023-04-23T11:09:21.500Z,21.26
2023-04-23T11:11:39.496Z,21.82
2023-04-23T11:13:54.024Z,21.99
2023-04-23T11:16:16.407Z,22.34
2023-04-23T11:18:19.207Z,22.21
2023-04-23T11:20:23.130Z,22.19
2023-04-23T11:22:35.716Z,22.08
2023-04-23T11:24:42.298Z,21.26
2023-04-23T11:26:46.242Z,20.91
2023-04-23T11:28:53.250Z,21.48
2023-04-23T11:30:56.059Z,21.62
2023-04-23T11:33:00.415Z,22.03
2023-04-23T11:35:05.304Z,21.86
2023-04-23T11:37:11.196Z,22.28
2023-04-23T11:39:13.851Z,22.48
2023-04-23T11:41:23.441Z,22.17
2023-04-23T11:43:29.177Z,22.31
2023-04-23T11:45:33.277Z,22.60
2023-04-23T11:47:36.321Z,22.02
2023-04-23T11:49:39.597Z,22.60
2023-04-23T11:51:44.630Z,22.79
2023-04-23T11:53:47.718Z,21.64
2023-04-23T11:55:51.066Z,22.05
2023-04-23T11:57:53.957Z,22.26
2023-04-23T11:59:56.692Z,22.51
2023-04-23T12:02:01.370Z,22.64
2023-04-23T12:04:10.839Z,23.06
2023-04-23T12:06:13.779Z,23.30
2023-04-23T12:08:17.642Z,23.11
2023-04-23T12:10:21.323Z,24.18
2023-04-23T12:12:24.065Z,24.17
2023-04-23T12:14:28.908Z,23.41
2023-04-23T12:16:37.024Z,23.17
2023-04-23T12:18:44.403Z,22.73
2023-04-23T12:20:47.334Z,21.79
2023-04-23T12:22:50.136Z,22.51
2023-04-23T12:24:54.442Z,22.38
2023-04-23T12:27:00.611Z,22.19
2023-04-23T12:29:03.593Z,22.59
2023-04-23T12:31:06.415Z,22.27
2023-04-23T12:33:12.505Z,22.63
2023-04-23T12:35:16.637Z,22.55
2023-04-23T12:37:19.481Z,23.02
2023-04-23T12:39:25.192Z,23.34
2023-04-23T12:41:27.953Z,23.54
2023-04-23T12:43:30.951Z,22.97
2023-04-23T12:45:38.513Z,20.91
2023-04-23T12:47:41.290Z,20.88
2023-04-23T12:49:44.352Z,22.38
2023-04-23T12:51:48.892Z,20.33
2023-04-23T12:53:51.999Z,22.69
2023-04-23T12:55:54.885Z,22.87
2023-04-23T12:57:59.934Z,22.46
2023-04-23T13:00:03.341Z,23.52
2023-04-23T13:02:07.319Z,22.95
2023-04-23T13:04:10.439Z,24.66
2023-04-23T13:06:13.204Z,25.15
2023-04-23T13:08:17.396Z,25.03
2023-04-23T13:10:20.460Z,23.70
2023-04-23T13:12:23.423Z,23.04
2023-04-23T13:14:27.185Z,22.69
2023-04-23T13:16:30.765Z,22.53
2023-04-23T13:18:33.636Z,24.07
2023-04-23T13:20:37.416Z,25.13
2023-04-23T13:22:40.222Z,25.41
2023-04-23T13:24:44.288Z,25.03
2023-04-23T13:26:47.065Z,24.54
2023-04-23T13:28:49.820Z,24.47
2023-04-23T13:30:52.558Z,24.93
2023-04-23T13:32:55.622Z,24.41
2023-04-23T13:35:00.513Z,22.93
2023-04-23T13:37:05.739Z,23.48
2023-04-23T13:39:09.024Z,24.33
2023-04-23T13:41:13.180Z,24.98
2023-04-23T13:43:16.199Z,25.61
2023-04-23T13:45:19.169Z,25.15
2023-04-23T13:47:22.012Z,26.15
2023-04-23T13:49:24.995Z,24.94
2023-04-23T13:53:35.742Z,24.00
2023-04-23T13:55:38.605Z,24.53
2023-04-23T13:57:42.778Z,24.83
2023-04-23T13:59:45.671Z,24.91
2023-04-23T14:01:49.692Z,22.91
2023-04-23T14:03:52.850Z,24.23
2023-04-23T14:05:55.617Z,23.65
2023-04-23T14:07:58.350Z,23.88
2023-04-23T14:10:01.147Z,23.81
2023-04-23T14:12:03.898Z,23.60
2023-04-23T14:14:08.379Z,23.23
2023-04-23T14:16:11.196Z,23.76
2023-04-23T14:18:13.949Z,23.89
2023-04-23T14:20:19.677Z,23.81
2023-04-23T14:22:22.403Z,23.46
2023-04-23T14:24:29.507Z,23.34
2023-04-23T14:26:47.467Z,23.13
2023-04-23T14:28:53.164Z,22.52
2023-04-23T14:30:58.828Z,22.66
2023-04-23T14:33:01.711Z,22.44
2023-04-23T14:35:04.853Z,22.45
2023-04-23T14:37:07.675Z,22.26
2023-04-23T14:39:10.501Z,22.03
2023-04-23T14:41:13.271Z,22.16
2023-04-23T14:43:16.352Z,21.99
2023-04-23T14:45:19.364Z,21.74
2023-04-23T14:47:23.510Z,21.71
2023-04-23T14:49:26.811Z,21.69
2023-04-23T14:51:29.606Z,21.64
2023-04-23T14:53:32.383Z,20.76
2023-04-23T14:55:35.370Z,21.01
2023-04-23T14:57:38.181Z,20.06
2023-04-23T14:59:41.015Z,18.75
2023-04-23T15:01:43.965Z,17.88
2023-04-23T15:03:48.225Z,17.67
2023-04-23T15:05:51.181Z,18.54
2023-04-23T15:07:53.931Z,18.11
2023-04-23T15:09:57.869Z,19.07
2023-04-23T15:12:00.890Z,19.18
2023-04-23T15:14:08.942Z,18.75
2023-04-23T15:16:39.999Z,19.06
2023-04-23T15:18:49.036Z,19.11
2023-04-23T15:20:51.781Z,19.28
2023-04-23T15:22:54.558Z,19.49
2023-04-23T15:24:57.239Z,19.73
2023-04-23T15:27:00.788Z,19.99
2023-04-23T15:29:04.020Z,20.07
2023-04-23T15:31:06.772Z,19.91
2023-04-23T15:33:09.613Z,19.63
2023-04-23T15:35:13.710Z,19.62
2023-04-23T15:37:16.536Z,19.54
2023-04-23T15:39:19.280Z,19.42
2023-04-23T15:41:22.055Z,18.62
2023-04-23T15:43:24.844Z,19.13
2023-04-23T15:45:27.589Z,18.28
2023-04-23T15:47:30.385Z,18.51
2023-04-23T15:49:33.251Z,18.69
2023-04-23T15:51:37.444Z,18.10
2023-04-23T15:53:40.245Z,18.60
2023-04-23T15:55:42.929Z,18.38
2023-04-23T15:57:46.411Z,18.16
2023-04-23T15:59:49.508Z,16.82
2023-04-23T16:01:52.185Z,15.51
2023-04-23T16:04:09.812Z,15.05
2023-04-23T16:06:14.064Z,14.76
2023-04-23T16:08:18.295Z,14.23
2023-04-23T16:10:21.009Z,14.26
2023-04-23T16:12:23.673Z,13.94
2023-04-23T16:14:26.471Z,14.33
2023-04-23T16:16:29.173Z,14.19
2023-04-23T16:18:31.976Z,14.21
2023-04-23T16:20:35.950Z,13.79
2023-04-23T16:22:38.613Z,14.82
2023-04-23T16:24:42.644Z,15.13
2023-04-23T16:26:45.458Z,14.85
2023-04-23T16:28:56.330Z,14.71
2023-04-23T16:31:03.707Z,14.60
2023-04-23T16:33:07.243Z,14.00
2023-04-23T16:35:10.510Z,13.78
2023-04-23T16:37:15.738Z,13.59
2023-04-23T16:39:18.401Z,13.84
2023-04-23T16:41:22.721Z,14.00
2023-04-23T16:43:25.510Z,14.10
2023-04-23T16:45:28.251Z,13.39
2023-04-23T16:47:31.362Z,13.68
2023-04-23T16:49:34.341Z,13.71
2023-04-23T16:51:37.107Z,13.82
2023-04-23T16:53:39.875Z,13.48
2023-04-23T16:55:42.711Z,13.62
2023-04-23T16:57:46.992Z,13.65
2023-04-23T16:59:49.715Z,13.51
2023-04-23T17:01:52.431Z,13.32
2023-04-23T17:03:55.284Z,13.56
2023-04-23T17:06:10.011Z,13.26
2023-04-23T17:08:12.786Z,13.16
2023-04-23T17:10:17.206Z,13.28
2023-04-23T17:12:19.870Z,13.42
2023-04-23T17:14:23.888Z,13.18
2023-04-23T17:16:27.458Z,13.18
2023-04-23T17:18:30.432Z,12.98
2023-04-23T17:20:35.277Z,13.05
2023-04-23T17:22:38.052Z,13.28
2023-04-23T17:24:41.120Z,13.39
2023-04-23T17:26:43.990Z,13.44
2023-04-23T17:28:46.850Z,13.49
2023-04-23T17:30:51.012Z,13.59
2023-04-23T17:32:53.781Z,13.62
2023-04-23T17:35:08.885Z,13.68
2023-04-23T17:37:14.020Z,14.10
2023-04-23T17:39:19.799Z,14.27
2023-04-23T17:41:23.362Z,14.41
2023-04-23T17:43:27.560Z,14.50
2023-04-23T17:45:30.300Z,14.57
2023-04-23T17:47:34.502Z,14.44
2023-04-23T17:49:37.653Z,14.44
2023-04-23T17:51:40.435Z,14.72
2023-04-23T17:53:48.154Z,14.81
2023-04-23T17:55:52.051Z,14.82
2023-04-23T17:57:54.780Z,14.79
2023-04-23T17:59:59.242Z,14.84
2023-04-23T18:02:03.276Z,14.78
2023-04-23T18:04:08.072Z,14.71
2023-04-23T18:06:11.161Z,14.70
2023-04-23T18:08:16.191Z,14.67
2023-04-23T18:10:19.012Z,14.38
2023-04-23T18:12:22.877Z,14.55
2023-04-23T18:14:25.957Z,14.38
2023-04-23T18:16:28.931Z,14.42
2023-04-23T18:18:31.824Z,14.39
2023-04-23T18:20:38.428Z,14.30
2023-04-23T18:22:42.468Z,13.99
2023-04-23T18:24:46.026Z,14.24
2023-04-23T18:26:51.892Z,14.21
2023-04-23T18:28:54.632Z,14.17
2023-04-23T18:31:02.315Z,14.09
2023-04-23T18:33:12.018Z,14.07
2023-04-23T18:35:15.133Z,13.39
2023-04-23T18:37:37.196Z,13.63
2023-04-23T18:39:40.512Z,13.93
2023-04-23T18:41:43.414Z,13.64
2023-04-23T18:43:46.409Z,13.65
2023-04-23T18:45:49.138Z,13.49
2023-04-23T18:47:57.483Z,13.00
2023-04-23T18:50:05.299Z,13.12
2023-04-23T18:52:08.266Z,13.01
2023-04-23T18:54:14.818Z,12.55
2023-04-23T18:56:17.598Z,12.28
2023-04-23T18:58:20.322Z,11.33
2023-04-23T19:00:23.322Z,11.32
2023-04-23T19:02:35.167Z,11.16
2023-04-23T19:04:39.084Z,10.75
2023-04-23T19:06:42.408Z,10.05
2023-04-23T19:08:45.550Z,10.02
2023-04-23T19:10:49.670Z,10.45
2023-04-23T19:12:52.473Z,10.39
2023-04-23T19:14:56.194Z,10.40
2023-04-23T19:16:59.014Z,10.42
2023-04-23T19:19:01.743Z,10.24
2023-04-23T19:21:04.885Z,10.28
2023-04-23T19:23:09.048Z,10.25
2023-04-23T19:25:11.766Z,10.08
2023-04-23T19:27:15.836Z,10.24
2023-04-23T19:29:18.553Z,10.16
2023-04-23T19:31:21.353Z,10.12
2023-04-23T19:33:24.179Z,10.05
2023-04-23T19:35:27.040Z,10.07
2023-04-23T19:37:31.161Z,9.88
2023-04-23T19:39:33.893Z,9.82
2023-04-23T19:41:36.669Z,9.81
2023-04-23T19:43:41.493Z,9.96
2023-04-23T19:45:44.237Z,9.00
2023-04-23T19:47:47.057Z,9.38
2023-04-23T19:49:49.837Z,9.70
2023-04-23T19:51:54.065Z,9.59
2023-04-23T19:53:58.220Z,9.88
2023-04-23T19:56:01.007Z,10.05
2023-04-23T19:58:06.306Z,9.99
2023-04-23T20:00:13.859Z,9.56
2023-04-23T20:02:17.177Z,10.11
2023-04-23T20:04:20.054Z,10.28
2023-04-23T20:06:22.896Z,10.03
2023-04-23T20:08:29.659Z,9.90
2023-04-23T20:10:32.819Z,10.02
2023-04-23T20:12:35.739Z,10.26
2023-04-23T20:14:38.505Z,10.42
2023-04-23T20:16:42.764Z,10.44
2023-04-23T20:18:47.200Z,10.49
2023-04-23T20:20:50.023Z,10.56
2023-04-23T20:22:52.821Z,10.08
2023-04-23T20:24:55.589Z,10.40
2023-04-23T20:26:58.681Z,10.18
2023-04-23T20:29:01.843Z,10.58
2023-04-23T20:31:04.670Z,10.58
2023-04-23T20:33:10.466Z,10.55
2023-04-23T20:35:13.683Z,10.57
2023-04-23T20:37:21.320Z,10.22
2023-04-23T20:39:24.233Z,10.57
2023-04-23T20:41:29.210Z,10.23
2023-04-23T20:43:34.322Z,10.54
2023-04-23T20:45:37.068Z,10.28
2023-04-23T20:47:39.809Z,10.60
2023-04-23T20:49:44.083Z,10.39
2023-04-23T20:51:47.290Z,10.32
2023-04-23T20:53:50.776Z,10.50
2023-04-23T20:55:53.465Z,10.29
2023-04-23T20:57:56.132Z,10.54
2023-04-23T20:59:58.769Z,10.49
2023-04-23T21:02:01.598Z,10.14
2023-04-23T21:04:04.548Z,10.52
2023-04-23T21:06:11.462Z,10.42
2023-04-23T21:08:14.783Z,10.45
2023-04-23T21:10:17.492Z,10.45
2023-04-23T21:12:20.211Z,10.41
2023-04-23T21:14:23.197Z,9.67
2023-04-23T21:16:25.969Z,10.37
2023-04-23T21:18:28.740Z,10.40
2023-04-23T21:20:31.466Z,10.32
2023-04-23T21:22:35.583Z,10.35
2023-04-23T21:24:38.335Z,10.39
2023-04-23T21:26:41.106Z,9.69
2023-04-23T21:28:43.855Z,10.31
2023-04-23T21:30:50.076Z,10.39
2023-04-23T21:32:52.927Z,9.38
2023-04-23T21:34:55.692Z,10.33
2023-04-23T21:36:58.404Z,10.34
2023-04-23T21:39:02.784Z,10.31
2023-04-23T21:41:06.311Z,10.35
2023-04-23T21:43:09.107Z,10.32
2023-04-23T21:45:12.363Z,10.35
2023-04-23T21:47:15.126Z,10.35
2023-04-23T21:49:18.155Z,10.35
2023-04-23T21:51:22.221Z,10.35
2023-04-23T21:53:25.109Z,10.17
2023-04-23T21:55:30.985Z,10.32
2023-04-23T21:57:34.676Z,10.06
2023-04-23T21:59:37.476Z,10.32
2023-04-23T22:01:40.956Z,10.31
2023-04-23T22:03:46.535Z,10.28
2023-04-23T22:05:49.451Z,9.76
2023-04-23T22:07:55.512Z,10.33
2023-04-23T22:10:00.225Z,10.24
2023-04-23T22:12:05.053Z,10.05
2023-04-23T22:14:07.843Z,10.35
2023-04-23T22:16:24.429Z,10.24
2023-04-23T22:18:30.788Z,10.07
2023-04-23T22:20:33.892Z,10.20
2023-04-23T22:22:37.671Z,10.28
2023-04-23T22:24:40.358Z,10.31
2023-04-23T22:26:43.256Z,10.32
2023-04-23T22:28:47.449Z,10.32
2023-04-23T22:30:52.079Z,10.15
2023-04-23T22:32:54.836Z,10.13
2023-04-23T22:34:58.048Z,9.72
2023-04-23T22:37:00.932Z,10.27
2023-04-23T22:39:05.704Z,10.30
2023-04-23T22:41:08.577Z,10.30
2023-04-23T22:43:11.444Z,10.09
2023-04-23T22:45:15.732Z,9.51
2023-04-23T22:47:18.639Z,9.99
2023-04-23T22:49:21.511Z,10.12
2023-04-23T22:51:24.993Z,9.98
2023-04-23T22:53:27.730Z,9.90
2023-04-23T22:55:30.460Z,9.85
2023-04-23T22:57:33.313Z,9.58
2023-04-23T22:59:36.324Z,10.08
2023-04-23T23:01:40.588Z,10.09
2023-04-23T23:03:43.474Z,10.07
2023-04-23T23:05:46.279Z,10.08
2023-04-23T23:07:49.027Z,10.08
2023-04-23T23:09:51.901Z,9.54
2023-04-23T23:11:54.660Z,9.13
2023-04-23T23:13:57.450Z,9.34
2023-04-23T23:16:02.402Z,9.63
2023-04-23T23:18:07.252Z,9.65
2023-04-23T23:20:11.914Z,9.67
2023-04-23T23:22:14.709Z,9.34
2023-04-23T23:24:17.646Z,9.46
2023-04-23T23:26:21.293Z,10.10
2023-04-23T23:28:24.109Z,10.08
2023-04-23T23:30:26.936Z,10.17
2023-04-23T23:32:29.751Z,10.12
2023-04-23T23:34:33.948Z,9.96
2023-04-23T23:36:36.717Z,10.10
2023-04-23T23:38:39.607Z,10.18
2023-04-23T23:40:42.438Z,10.08
2023-04-23T23:42:45.303Z,10.13
2023-04-23T23:44:48.040Z,10.27
2023-04-23T23:46:51.955Z,10.27
2023-04-23T23:48:54.781Z,10.28
2023-04-23T23:50:58.947Z,10.30
2023-04-23T23:53:01.765Z,10.25
2023-04-23T23:55:04.827Z,9.93
2023-04-23T23:57:07.522Z,10.12
2023-04-23T23:59:10.258Z,10.38
